Weather at Hahnweide Airfield

Public forecast

Using degrees Celsius for public forecast. Weather courtesy of forecast.io.

Closest aviation weather report (METAR) to Hahnweide Airfield

Closest report is Stuttgart Airport, 8.9 nm (16.5 km) WNW.

2024/07/25 18:50 (retrieved 18 minutes ago)

EDDS 251850Z AUTO 07004KT CAVOK 21/13 Q1013 NOSIG

Closest aviation forecast (TAF) to Hahnweide Airfield

Closest forecast is Stuttgart Airport, 8.9 nm (16.5 km) WNW.

2024/07/25 18:27 (retrieved 41 minutes ago)

TAF TAF EDDS 251700Z 2518/2618 VRB03KT CAVOK BECMG 2611/2613 35005KT PROB30 TEMPO 2613/2618 SHRA BKN050CB